createdAt,value
2019-04-29T00:00:46.493Z,10.91
2019-04-29T00:01:46.466Z,10.95
2019-04-29T00:02:46.455Z,10.97
2019-04-29T00:03:46.447Z,10.94
2019-04-29T00:04:46.489Z,10.90
2019-04-29T00:05:46.435Z,10.95
2019-04-29T00:06:46.423Z,10.94
2019-04-29T00:07:46.403Z,10.93
2019-04-29T00:08:46.395Z,10.87
2019-04-29T00:09:46.388Z,10.94
2019-04-29T00:10:46.415Z,10.85
2019-04-29T00:11:46.378Z,10.93
2019-04-29T00:12:46.351Z,10.85
2019-04-29T00:13:46.408Z,10.95
2019-04-29T00:14:46.327Z,10.86
2019-04-29T00:15:46.315Z,10.91
2019-04-29T00:16:46.334Z,10.86
2019-04-29T00:17:46.291Z,10.83
2019-04-29T00:18:46.345Z,10.86
2019-04-29T00:19:46.272Z,10.90
2019-04-29T00:20:46.333Z,10.86
2019-04-29T00:21:46.267Z,10.86
2019-04-29T00:22:46.247Z,10.86
2019-04-29T00:23:46.249Z,10.86
2019-04-29T00:24:46.222Z,10.85
2019-04-29T00:25:46.243Z,10.85
2019-04-29T00:26:46.215Z,10.79
2019-04-29T00:27:46.181Z,10.86
2019-04-29T00:28:46.171Z,10.76
2019-04-29T00:29:46.164Z,10.80
2019-04-29T00:30:46.162Z,10.78
2019-04-29T00:31:46.229Z,10.80
2019-04-29T00:32:46.138Z,10.70
2019-04-29T00:33:46.123Z,10.78
2019-04-29T00:34:46.132Z,10.76
2019-04-29T00:35:46.100Z,10.72
2019-04-29T00:36:46.113Z,10.78
2019-04-29T00:37:46.076Z,10.79
2019-04-29T00:38:46.075Z,10.79
2019-04-29T00:39:46.062Z,10.75
2019-04-29T00:40:46.274Z,10.62
2019-04-29T00:41:46.048Z,10.62
2019-04-29T00:42:46.022Z,10.67
2019-04-29T00:43:46.016Z,10.70
2019-04-29T00:44:46.000Z,10.67
2019-04-29T00:45:45.992Z,10.60
2019-04-29T00:46:46.021Z,10.57
2019-04-29T00:47:45.966Z,10.65
2019-04-29T00:48:45.968Z,10.65
2019-04-29T00:49:45.946Z,10.65
2019-04-29T00:50:45.936Z,10.67
2019-04-29T00:51:45.942Z,10.65
2019-04-29T00:52:45.926Z,10.49
2019-04-29T00:53:45.916Z,10.61
2019-04-29T00:54:45.894Z,10.58
2019-04-29T00:55:45.886Z,10.54
2019-04-29T00:56:45.882Z,10.58
2019-04-29T00:57:45.860Z,10.54
2019-04-29T00:58:45.842Z,10.61
2019-04-29T00:59:45.858Z,10.57
2019-04-29T01:00:45.824Z,10.46
2019-04-29T01:01:45.831Z,10.54
2019-04-29T01:02:45.804Z,10.57
2019-04-29T01:03:45.792Z,10.57
2019-04-29T01:04:45.779Z,10.54
2019-04-29T01:05:45.779Z,10.46
2019-04-29T01:06:45.793Z,10.55
2019-04-29T01:07:45.749Z,10.42
2019-04-29T01:08:45.735Z,10.39
2019-04-29T01:09:45.728Z,10.39
2019-04-29T01:10:45.720Z,10.38
2019-04-29T01:11:45.719Z,10.39
2019-04-29T01:12:45.704Z,10.43
2019-04-29T01:13:45.683Z,10.42
2019-04-29T01:14:45.674Z,10.42
2019-04-29T01:15:45.660Z,10.43
2019-04-29T01:16:45.664Z,10.46
2019-04-29T01:17:45.642Z,10.35
2019-04-29T01:18:45.672Z,10.41
2019-04-29T01:19:45.619Z,10.42
2019-04-29T01:20:45.610Z,10.42
2019-04-29T01:21:45.628Z,10.48
2019-04-29T01:22:45.654Z,10.38
2019-04-29T01:23:45.573Z,10.43
2019-04-29T01:24:45.563Z,10.46
2019-04-29T01:25:45.555Z,10.41
2019-04-29T01:26:45.569Z,10.39
2019-04-29T01:27:45.547Z,10.27
2019-04-29T01:28:45.533Z,10.31
2019-04-29T01:29:45.559Z,10.28
2019-04-29T01:30:45.503Z,10.28
2019-04-29T01:31:45.499Z,10.31
2019-04-29T01:32:45.497Z,10.28
2019-04-29T01:33:45.473Z,10.31
2019-04-29T01:34:45.493Z,10.26
2019-04-29T01:35:45.450Z,10.21
2019-04-29T01:36:45.437Z,10.26
2019-04-29T01:37:45.438Z,10.28
2019-04-29T01:38:48.575Z,10.26
2019-04-29T01:39:45.405Z,10.27
2019-04-29T01:40:45.394Z,10.26
2019-04-29T01:41:45.386Z,10.16
2019-04-29T01:42:45.385Z,10.14
2019-04-29T01:43:45.357Z,10.20
2019-04-29T01:44:45.353Z,10.17
2019-04-29T01:45:45.335Z,10.17
2019-04-29T01:46:45.331Z,10.12
2019-04-29T01:47:45.382Z,10.16
2019-04-29T01:48:45.309Z,10.16
2019-04-29T01:49:45.293Z,10.17
2019-04-29T01:50:45.319Z,10.14
2019-04-29T01:51:45.284Z,10.09
2019-04-29T01:52:45.275Z,10.14
2019-04-29T01:53:45.262Z,10.12
2019-04-29T01:54:45.239Z,10.10
2019-04-29T01:55:45.237Z,10.10
2019-04-29T01:56:45.242Z,10.03
2019-04-29T01:57:45.232Z,10.05
2019-04-29T01:58:45.194Z,10.12
2019-04-29T01:59:45.189Z,10.09
2019-04-29T02:00:45.263Z,10.08
2019-04-29T02:01:45.168Z,10.06
2019-04-29T02:02:45.168Z,10.12
2019-04-29T02:03:45.149Z,10.09
2019-04-29T02:04:45.136Z,10.01
2019-04-29T02:05:45.196Z,10.10
2019-04-29T02:06:45.144Z,10.03
2019-04-29T02:07:45.150Z,10.09
2019-04-29T02:08:45.106Z,10.12
2019-04-29T02:09:45.094Z,10.06
2019-04-29T02:10:45.097Z,9.96
2019-04-29T02:11:45.064Z,9.99
2019-04-29T02:12:45.071Z,10.03
2019-04-29T02:13:45.040Z,9.96
2019-04-29T02:14:45.026Z,10.09
2019-04-29T02:15:45.009Z,10.01
2019-04-29T02:16:45.014Z,10.03
2019-04-29T02:17:44.992Z,10.02
2019-04-29T02:18:45.006Z,10.08
2019-04-29T02:19:44.983Z,10.02
2019-04-29T02:20:44.956Z,10.05
2019-04-29T02:21:44.948Z,9.94
2019-04-29T02:22:44.992Z,9.99
2019-04-29T02:23:44.940Z,10.01
2019-04-29T02:24:44.914Z,10.01
2019-04-29T02:25:44.940Z,9.93
2019-04-29T02:26:44.904Z,9.98
2019-04-29T02:27:44.894Z,9.93
2019-04-29T02:28:44.886Z,9.90
2019-04-29T02:29:44.860Z,9.87
2019-04-29T02:30:44.860Z,9.98
2019-04-29T02:31:44.854Z,9.93
2019-04-29T02:32:44.828Z,9.99
2019-04-29T02:33:44.841Z,9.87
2019-04-29T02:34:44.808Z,9.99
2019-04-29T02:35:44.806Z,9.91
2019-04-29T02:36:44.791Z,9.85
2019-04-29T02:37:44.776Z,9.87
2019-04-29T02:38:44.780Z,9.85
2019-04-29T02:39:44.761Z,9.87
2019-04-29T02:40:44.749Z,9.84
2019-04-29T02:41:44.746Z,9.87
2019-04-29T02:42:44.721Z,9.81
2019-04-29T02:43:44.775Z,9.88
2019-04-29T02:44:44.706Z,9.81
2019-04-29T02:45:44.695Z,9.78
2019-04-29T02:46:44.685Z,9.83
2019-04-29T02:47:44.669Z,9.80
2019-04-29T02:48:44.671Z,9.78
2019-04-29T02:49:44.643Z,9.73
2019-04-29T02:50:44.641Z,9.83
2019-04-29T02:51:44.725Z,9.85
2019-04-29T02:52:44.626Z,9.87
2019-04-29T02:53:44.630Z,9.84
2019-04-29T02:54:44.598Z,9.80
2019-04-29T02:55:44.597Z,9.78
2019-04-29T02:56:44.568Z,9.84
2019-04-29T02:57:44.570Z,9.72
2019-04-29T02:58:44.565Z,9.78
2019-04-29T02:59:44.641Z,9.77
2019-04-29T03:00:44.533Z,9.70
2019-04-29T03:01:44.537Z,9.77
2019-04-29T03:02:44.512Z,9.78
2019-04-29T03:03:44.515Z,9.80
2019-04-29T03:04:44.502Z,9.84
2019-04-29T03:05:44.475Z,9.81
2019-04-29T03:06:44.472Z,9.78
2019-04-29T03:07:44.455Z,9.80
2019-04-29T03:08:44.458Z,9.84
2019-04-29T03:09:44.430Z,9.80
2019-04-29T03:10:44.427Z,9.78
2019-04-29T03:11:44.410Z,9.88
2019-04-29T03:12:44.413Z,9.77
2019-04-29T03:13:44.451Z,9.78
2019-04-29T03:14:44.486Z,9.81
2019-04-29T03:15:44.368Z,9.91
2019-04-29T03:16:44.366Z,9.83
2019-04-29T03:17:44.351Z,9.72
2019-04-29T03:18:44.334Z,9.84
2019-04-29T03:19:44.338Z,9.84
2019-04-29T03:20:44.360Z,9.81
2019-04-29T03:21:44.319Z,9.88
2019-04-29T03:22:44.294Z,9.78
2019-04-29T03:23:44.275Z,9.85
2019-04-29T03:24:44.295Z,9.84
2019-04-29T03:25:44.269Z,9.80
2019-04-29T03:26:44.247Z,9.85
2019-04-29T03:27:44.229Z,9.81
2019-04-29T03:28:44.220Z,9.84
2019-04-29T03:29:44.254Z,9.84
2019-04-29T03:30:44.255Z,9.81
2019-04-29T03:31:44.209Z,9.73
2019-04-29T03:32:44.177Z,9.80
2019-04-29T03:33:44.195Z,9.78
2019-04-29T03:34:44.180Z,9.78
2019-04-29T03:35:44.198Z,9.88
2019-04-29T03:36:44.132Z,9.75
2019-04-29T03:37:44.129Z,9.80
2019-04-29T03:38:44.122Z,9.78
2019-04-29T03:39:44.140Z,9.77
2019-04-29T03:40:44.089Z,9.87
2019-04-29T03:41:44.079Z,9.77
2019-04-29T03:42:44.075Z,9.80
2019-04-29T03:43:44.057Z,9.84
2019-04-29T03:44:44.073Z,9.91
2019-04-29T03:45:44.067Z,9.83
2019-04-29T03:46:44.025Z,9.88
2019-04-29T03:47:44.019Z,9.84
2019-04-29T03:48:44.007Z,9.88
2019-04-29T03:49:44.012Z,9.84
2019-04-29T03:50:43.991Z,9.87
2019-04-29T03:51:43.981Z,9.90
2019-04-29T03:52:43.965Z,9.87
2019-04-29T03:53:43.951Z,9.87
2019-04-29T03:54:43.962Z,9.88
2019-04-29T03:55:43.932Z,9.90
2019-04-29T03:56:43.924Z,9.91
2019-04-29T03:57:43.939Z,9.84
2019-04-29T03:58:43.893Z,9.85
2019-04-29T03:59:43.964Z,9.90
2019-04-29T04:00:44.417Z,9.94
2019-04-29T04:01:43.863Z,9.85
2019-04-29T04:02:43.852Z,9.91
2019-04-29T04:03:43.856Z,9.96
2019-04-29T04:04:43.880Z,9.99
2019-04-29T04:05:43.822Z,9.98
2019-04-29T04:06:43.814Z,9.87
2019-04-29T04:07:43.892Z,9.94
2019-04-29T04:08:43.802Z,9.90
2019-04-29T04:09:43.807Z,9.94
2019-04-29T04:10:43.772Z,9.98
2019-04-29T04:11:43.761Z,9.99
2019-04-29T04:12:43.747Z,9.94
2019-04-29T04:13:43.742Z,9.90
2019-04-29T04:14:43.746Z,10.01
2019-04-29T04:15:43.724Z,10.03
2019-04-29T04:16:43.700Z,9.96
2019-04-29T04:17:43.702Z,10.02
2019-04-29T04:18:43.734Z,10.03
2019-04-29T04:19:43.704Z,10.02
2019-04-29T04:20:43.656Z,10.03
2019-04-29T04:21:43.649Z,9.98
2019-04-29T04:22:43.671Z,10.02
2019-04-29T04:23:43.636Z,10.03
2019-04-29T04:24:43.679Z,10.08
2019-04-29T04:25:43.610Z,10.01
2019-04-29T04:26:43.605Z,10.01
2019-04-29T04:27:43.620Z,10.01
2019-04-29T04:28:43.582Z,10.01
2019-04-29T04:29:43.586Z,10.06
2019-04-29T04:30:43.560Z,9.99
2019-04-29T04:31:43.551Z,10.05
2019-04-29T04:32:43.533Z,10.02
2019-04-29T04:33:43.630Z,10.02
2019-04-29T04:34:43.529Z,10.09
2019-04-29T04:35:43.502Z,10.01
2019-04-29T04:36:43.499Z,10.09
2019-04-29T04:37:43.479Z,10.12
2019-04-29T04:38:43.470Z,10.10
2019-04-29T04:39:43.557Z,10.06
2019-04-29T04:40:43.478Z,10.08
2019-04-29T04:41:43.527Z,10.03
2019-04-29T04:42:43.430Z,10.08
2019-04-29T04:43:43.413Z,10.02
2019-04-29T04:44:43.414Z,10.09
2019-04-29T04:45:43.400Z,10.06
2019-04-29T04:46:43.386Z,10.09
2019-04-29T04:47:43.371Z,10.09
2019-04-29T04:48:43.382Z,10.10
2019-04-29T04:49:43.355Z,10.17
2019-04-29T04:50:43.351Z,10.20
2019-04-29T04:51:43.325Z,10.12
2019-04-29T04:52:43.309Z,10.10
2019-04-29T04:53:43.308Z,10.08
2019-04-29T04:54:43.384Z,10.10
2019-04-29T04:55:43.305Z,10.14
2019-04-29T04:56:43.265Z,10.14
2019-04-29T04:57:43.261Z,10.21
2019-04-29T04:58:43.300Z,10.26
2019-04-29T04:59:43.268Z,10.23
2019-04-29T05:00:43.286Z,10.24
2019-04-29T05:01:43.220Z,10.20
2019-04-29T05:02:43.259Z,10.23
2019-04-29T05:03:43.208Z,10.18
2019-04-29T05:04:43.193Z,10.27
2019-04-29T05:05:43.182Z,10.31
2019-04-29T05:06:43.158Z,10.27
2019-04-29T05:07:43.152Z,10.28
2019-04-29T05:08:43.168Z,10.27
2019-04-29T05:09:43.136Z,10.27
2019-04-29T05:10:43.151Z,10.30
2019-04-29T05:11:43.136Z,10.34
2019-04-29T05:12:43.099Z,10.27
2019-04-29T05:13:43.114Z,10.27
2019-04-29T05:14:43.071Z,10.30
2019-04-29T05:15:43.080Z,10.42
2019-04-29T05:16:43.063Z,10.35
2019-04-29T05:17:43.047Z,10.38
2019-04-29T05:18:43.028Z,10.31
2019-04-29T05:19:43.017Z,10.42
2019-04-29T05:20:43.037Z,10.41
2019-04-29T05:21:42.994Z,10.45
2019-04-29T05:22:42.996Z,10.43
2019-04-29T05:23:42.974Z,10.46
2019-04-29T05:24:42.969Z,10.42
2019-04-29T05:25:42.981Z,10.43
2019-04-29T05:26:42.942Z,10.54
2019-04-29T05:27:42.931Z,10.43
2019-04-29T05:28:42.931Z,10.43
2019-04-29T05:29:42.923Z,10.54
2019-04-29T05:30:42.903Z,10.42
2019-04-29T05:31:42.927Z,10.46
2019-04-29T05:32:42.899Z,10.49
2019-04-29T05:33:42.871Z,10.54
2019-04-29T05:34:46.634Z,10.49
2019-04-29T05:35:43.853Z,10.48
2019-04-29T05:36:42.871Z,10.42
2019-04-29T05:37:42.825Z,10.43
2019-04-29T05:38:42.817Z,10.43
2019-04-29T05:39:42.841Z,10.52
2019-04-29T05:40:42.811Z,10.54
2019-04-29T05:41:42.801Z,10.57
2019-04-29T05:42:42.770Z,10.49
2019-04-29T05:43:42.759Z,10.58
2019-04-29T05:44:42.813Z,10.57
2019-04-29T05:45:46.177Z,10.48
2019-04-29T05:46:43.779Z,10.52
2019-04-29T05:47:42.723Z,10.55
2019-04-29T05:48:42.702Z,10.48
2019-04-29T05:49:42.861Z,10.55
2019-04-29T05:50:42.693Z,10.61
2019-04-29T05:51:42.692Z,10.58
2019-04-29T05:52:42.683Z,10.49
2019-04-29T05:53:42.649Z,10.58
2019-04-29T05:54:42.638Z,10.55
2019-04-29T05:55:42.648Z,10.54
2019-04-29T05:56:42.654Z,10.52
2019-04-29T05:57:42.614Z,10.55
2019-04-29T05:58:42.647Z,10.55
2019-04-29T05:59:43.451Z,10.55
2019-04-29T06:00:42.578Z,10.48
2019-04-29T06:01:46.697Z,10.55
2019-04-29T06:02:42.557Z,10.61
2019-04-29T06:03:44.344Z,10.49
2019-04-29T06:04:42.532Z,10.65
2019-04-29T06:05:42.522Z,10.60
2019-04-29T06:06:42.530Z,10.49
2019-04-29T06:07:42.504Z,10.65
2019-04-29T06:08:42.530Z,10.65
2019-04-29T06:09:42.479Z,10.61
2019-04-29T06:10:42.466Z,10.62
2019-04-29T06:11:42.490Z,10.55
2019-04-29T06:12:44.430Z,10.64
2019-04-29T06:13:42.497Z,10.61
2019-04-29T06:14:42.428Z,10.64
2019-04-29T06:15:42.450Z,10.67
2019-04-29T06:16:42.422Z,10.64
2019-04-29T06:17:44.736Z,10.73
2019-04-29T06:18:42.383Z,10.64
2019-04-29T06:19:42.370Z,10.67
2019-04-29T06:20:42.360Z,10.68
2019-04-29T06:21:42.360Z,10.72
2019-04-29T06:22:43.534Z,10.61
2019-04-29T06:23:42.331Z,10.70
2019-04-29T06:24:42.318Z,10.67
2019-04-29T06:25:42.315Z,10.61
2019-04-29T06:26:43.691Z,10.61
2019-04-29T06:27:42.292Z,10.61
2019-04-29T06:28:42.269Z,10.62
2019-04-29T06:29:42.262Z,10.68
2019-04-29T06:30:45.119Z,10.73
2019-04-29T06:31:43.294Z,10.67
2019-04-29T06:32:42.241Z,10.79
2019-04-29T06:33:42.216Z,10.76
2019-04-29T06:34:42.215Z,10.70
2019-04-29T06:35:43.324Z,10.75
2019-04-29T06:36:42.218Z,10.76
2019-04-29T06:37:42.201Z,10.70
2019-04-29T06:38:42.168Z,10.85
2019-04-29T06:39:42.183Z,10.79
2019-04-29T06:40:42.147Z,10.85
2019-04-29T06:41:45.424Z,10.82
2019-04-29T06:42:42.135Z,10.75
2019-04-29T06:43:42.157Z,10.83
2019-04-29T06:44:44.367Z,10.90
2019-04-29T06:45:43.083Z,10.86
2019-04-29T06:46:42.127Z,10.79
2019-04-29T06:47:42.095Z,10.90
2019-04-29T06:48:42.052Z,10.82
2019-04-29T06:49:42.044Z,10.83
2019-04-29T06:50:42.048Z,10.95
2019-04-29T06:51:42.019Z,10.98
2019-04-29T06:52:42.028Z,10.98
2019-04-29T06:53:41.993Z,11.08
2019-04-29T06:54:42.003Z,11.03
2019-04-29T06:55:41.972Z,11.00
2019-04-29T06:56:41.967Z,11.05
2019-04-29T06:57:42.051Z,11.04
2019-04-29T06:58:41.939Z,11.00
2019-04-29T06:59:43.017Z,11.01
2019-04-29T07:00:42.957Z,11.09
2019-04-29T07:01:41.909Z,11.01
2019-04-29T07:02:45.560Z,11.08
2019-04-29T07:03:42.884Z,11.13
2019-04-29T07:04:41.874Z,11.03
2019-04-29T07:05:41.865Z,11.11
2019-04-29T07:06:41.853Z,11.16
2019-04-29T07:07:41.861Z,11.28
2019-04-29T07:08:41.841Z,11.27
2019-04-29T07:09:41.818Z,11.33
2019-04-29T07:10:41.809Z,11.36
2019-04-29T07:11:41.803Z,11.38
2019-04-29T07:12:42.799Z,11.43
2019-04-29T07:13:42.777Z,11.45
2019-04-29T07:14:41.765Z,11.45
2019-04-29T07:15:43.500Z,11.46
2019-04-29T07:16:42.751Z,11.51
2019-04-29T07:17:43.078Z,11.54
2019-04-29T07:18:48.360Z,11.61
2019-04-29T07:19:42.721Z,11.66
2019-04-29T07:20:41.731Z,11.62
2019-04-29T07:21:46.341Z,11.61
2019-04-29T07:22:42.706Z,11.64
2019-04-29T07:23:41.767Z,11.71
2019-04-29T07:24:41.669Z,11.67
2019-04-29T07:25:41.651Z,11.58
2019-04-29T07:26:41.642Z,11.61
2019-04-29T07:27:44.257Z,11.62
2019-04-29T07:28:41.633Z,11.61
2019-04-29T07:29:41.611Z,11.56
2019-04-29T07:31:00.317Z,11.61
2019-04-29T07:31:42.580Z,11.52
2019-04-29T07:32:42.089Z,11.55
2019-04-29T07:33:42.579Z,11.61
2019-04-29T07:34:41.589Z,11.66
2019-04-29T07:35:43.055Z,11.70
2019-04-29T07:36:42.523Z,11.69
2019-04-29T07:37:41.523Z,11.67
2019-04-29T07:38:42.278Z,11.67
2019-04-29T07:39:41.506Z,11.77
2019-04-29T07:40:43.447Z,11.74
2019-04-29T07:41:41.478Z,11.71
2019-04-29T07:42:41.464Z,11.77
2019-04-29T07:43:42.991Z,11.80
2019-04-29T07:44:44.207Z,11.77
2019-04-29T07:45:44.387Z,11.77
2019-04-29T07:46:57.005Z,11.70
2019-04-29T07:47:55.563Z,11.77
2019-04-29T07:48:43.825Z,11.71
2019-04-29T07:49:41.410Z,11.71
2019-04-29T07:50:41.384Z,11.76
2019-04-29T07:51:41.370Z,11.71
2019-04-29T07:52:41.351Z,11.77
2019-04-29T07:53:45.552Z,11.77
2019-04-29T07:54:41.330Z,11.71
2019-04-29T07:55:41.329Z,11.66
2019-04-29T07:56:42.314Z,11.62
2019-04-29T07:57:41.333Z,11.69
2019-04-29T07:58:41.307Z,11.56
2019-04-29T07:59:41.288Z,11.54
2019-04-29T08:00:44.626Z,11.55
2019-04-29T08:01:42.283Z,11.49
2019-04-29T08:02:41.242Z,11.55
2019-04-29T08:03:41.316Z,11.49
2019-04-29T08:04:41.225Z,11.49
2019-04-29T08:05:41.214Z,11.54
2019-04-29T08:06:43.021Z,11.43
2019-04-29T08:07:41.186Z,11.51
2019-04-29T08:08:53.850Z,11.41
2019-04-29T08:09:44.157Z,11.40
2019-04-29T08:10:52.572Z,11.33
2019-04-29T08:11:42.157Z,11.30
2019-04-29T08:12:41.134Z,11.34
2019-04-29T08:13:41.135Z,11.27
2019-04-29T08:14:41.111Z,11.27
2019-04-29T08:15:43.214Z,11.30
2019-04-29T08:16:41.087Z,11.37
2019-04-29T08:17:41.087Z,11.33
2019-04-29T08:18:41.087Z,11.40
2019-04-29T08:19:41.056Z,11.31
2019-04-29T08:20:41.449Z,11.27
2019-04-29T08:21:41.034Z,11.27
2019-04-29T08:22:41.110Z,11.22
2019-04-29T08:23:42.323Z,11.30
2019-04-29T08:24:41.008Z,11.23
2019-04-29T08:25:41.015Z,11.22
2019-04-29T08:26:47.122Z,11.22
2019-04-29T08:27:43.735Z,11.25
2019-04-29T08:28:41.083Z,11.23
2019-04-29T08:29:40.949Z,11.12
2019-04-29T08:30:41.726Z,11.19
2019-04-29T08:31:40.947Z,11.15
2019-04-29T08:32:40.915Z,11.18
2019-04-29T08:33:42.453Z,11.13
2019-04-29T08:34:41.901Z,11.09
2019-04-29T08:35:40.889Z,11.09
2019-04-29T08:36:40.870Z,11.03
2019-04-29T08:37:40.863Z,11.05
2019-04-29T08:38:40.877Z,11.08
2019-04-29T08:39:40.839Z,11.01
2019-04-29T08:40:45.147Z,11.08
2019-04-29T08:41:41.813Z,11.09
2019-04-29T08:42:41.848Z,11.00
2019-04-29T08:43:40.800Z,11.08
2019-04-29T08:44:40.797Z,11.05
2019-04-29T08:45:40.775Z,10.97
2019-04-29T08:46:44.460Z,11.01
2019-04-29T08:47:41.783Z,10.94
2019-04-29T08:48:40.744Z,10.98
2019-04-29T08:49:40.749Z,11.05
2019-04-29T08:50:40.728Z,11.04
2019-04-29T08:51:40.712Z,10.95
2019-04-29T08:52:40.704Z,11.09
2019-04-29T08:53:40.686Z,11.12
2019-04-29T08:54:40.695Z,11.00
2019-04-29T08:55:40.700Z,11.01
2019-04-29T08:56:55.270Z,11.19
2019-04-29T08:57:41.644Z,11.11
2019-04-29T08:58:44.293Z,11.11
2019-04-29T08:59:41.630Z,11.09
2019-04-29T09:00:40.609Z,11.08
2019-04-29T09:01:40.622Z,11.03
2019-04-29T09:02:41.286Z,11.00
2019-04-29T09:03:41.572Z,11.08
2019-04-29T09:04:52.962Z,11.23
2019-04-29T09:05:45.756Z,11.11
2019-04-29T09:06:40.548Z,11.01
2019-04-29T09:07:40.596Z,11.15
2019-04-29T09:08:54.138Z,11.09
2019-04-29T09:09:41.524Z,11.15
2019-04-29T09:10:40.508Z,11.19
2019-04-29T09:11:43.581Z,11.16
2019-04-29T09:12:41.492Z,11.22
2019-04-29T09:13:40.470Z,11.18
2019-04-29T09:14:40.506Z,11.31
2019-04-29T09:15:40.455Z,11.31
2019-04-29T09:16:40.434Z,11.27
2019-04-29T09:17:40.471Z,11.27
2019-04-29T09:18:40.422Z,11.30
2019-04-29T09:19:40.420Z,11.38
2019-04-29T09:20:40.391Z,11.43
2019-04-29T09:21:40.438Z,11.38
2019-04-29T09:22:40.371Z,11.41
2019-04-29T09:23:40.365Z,11.51
2019-04-29T09:24:43.602Z,11.49
2019-04-29T09:25:41.338Z,11.58
2019-04-29T09:26:40.329Z,11.61
2019-04-29T09:27:40.804Z,11.55
2019-04-29T09:28:40.306Z,11.56
2019-04-29T09:29:40.301Z,11.52
2019-04-29T09:30:40.284Z,11.66
2019-04-29T09:31:40.334Z,11.69
2019-04-29T09:32:40.337Z,11.66
2019-04-29T09:33:44.059Z,11.64
2019-04-29T09:34:41.253Z,11.66
2019-04-29T09:35:40.614Z,11.67
2019-04-29T09:36:43.848Z,11.58
2019-04-29T09:37:41.229Z,11.69
2019-04-29T09:38:40.197Z,11.56
2019-04-29T09:39:43.550Z,11.62
2019-04-29T09:40:40.202Z,11.56
2019-04-29T09:41:40.169Z,11.56
2019-04-29T09:42:40.186Z,11.56
2019-04-29T09:43:40.142Z,11.54
2019-04-29T09:44:44.512Z,11.66
2019-04-29T09:45:40.119Z,11.55
2019-04-29T09:46:40.114Z,11.58
2019-04-29T09:47:40.099Z,11.58
2019-04-29T09:48:40.095Z,11.54
2019-04-29T09:49:40.113Z,11.58
2019-04-29T09:50:41.021Z,11.55
2019-04-29T09:51:40.051Z,11.61
2019-04-29T09:52:40.069Z,11.54
2019-04-29T09:53:40.034Z,11.55
2019-04-29T09:54:40.027Z,11.58
2019-04-29T09:55:41.280Z,11.56
2019-04-29T09:56:40.013Z,11.59
2019-04-29T09:57:39.993Z,11.54
2019-04-29T09:58:39.981Z,11.58
2019-04-29T09:59:39.979Z,11.64
2019-04-29T10:00:40.753Z,11.64
2019-04-29T10:01:39.947Z,11.66
2019-04-29T10:02:39.955Z,11.82
2019-04-29T10:03:39.939Z,11.70
2019-04-29T10:04:39.916Z,11.69
2019-04-29T10:05:39.924Z,11.84
2019-04-29T10:06:39.891Z,11.74
2019-04-29T10:07:39.899Z,11.77
2019-04-29T10:08:39.932Z,11.77
2019-04-29T10:09:39.859Z,11.80
2019-04-29T10:10:39.861Z,11.88
2019-04-29T10:11:39.838Z,11.85
2019-04-29T10:12:39.845Z,11.93
2019-04-29T10:13:39.815Z,11.80
2019-04-29T10:14:39.816Z,11.89
2019-04-29T10:15:39.815Z,11.96
2019-04-29T10:16:39.785Z,11.93
2019-04-29T10:17:39.770Z,11.97
2019-04-29T10:18:39.756Z,11.91
2019-04-29T10:19:39.755Z,11.89
2019-04-29T10:20:39.781Z,11.77
2019-04-29T10:21:39.748Z,11.88
2019-04-29T10:22:39.728Z,11.99
2019-04-29T10:23:39.717Z,11.89
2019-04-29T10:24:39.695Z,11.82
2019-04-29T10:25:39.692Z,11.91
2019-04-29T10:26:39.713Z,11.91
2019-04-29T10:27:39.680Z,11.91
2019-04-29T10:28:39.772Z,11.93
2019-04-29T10:29:39.638Z,11.88
2019-04-29T10:30:39.642Z,12.00
2019-04-29T10:31:39.640Z,12.03
2019-04-29T10:32:42.531Z,12.05
2019-04-29T10:33:39.600Z,12.08
2019-04-29T10:34:39.584Z,12.18
2019-04-29T10:35:40.768Z,12.28
2019-04-29T10:36:40.572Z,12.28
2019-04-29T10:37:39.556Z,12.40
2019-04-29T10:38:40.542Z,12.40
2019-04-29T10:39:42.364Z,12.35
2019-04-29T10:40:39.540Z,12.38
2019-04-29T10:41:40.239Z,12.43
2019-04-29T10:42:39.508Z,12.46
2019-04-29T10:43:39.488Z,12.44
2019-04-29T10:44:39.485Z,12.48
2019-04-29T10:45:40.593Z,12.58
2019-04-29T10:46:39.476Z,12.58
2019-04-29T10:47:39.447Z,12.63
2019-04-29T10:48:39.449Z,12.71
2019-04-29T10:49:40.374Z,12.62
2019-04-29T10:50:39.418Z,12.66
2019-04-29T10:51:39.424Z,12.68
2019-04-29T10:52:40.865Z,12.73
2019-04-29T10:53:39.372Z,12.73
2019-04-29T10:54:39.369Z,12.66
2019-04-29T10:55:39.359Z,12.77
2019-04-29T10:56:41.039Z,12.71
2019-04-29T10:57:39.337Z,12.77
2019-04-29T10:58:39.323Z,12.73
2019-04-29T10:59:40.625Z,12.68
2019-04-29T11:00:40.299Z,12.71
2019-04-29T11:01:39.311Z,12.69
2019-04-29T11:02:39.273Z,12.81
2019-04-29T11:03:39.279Z,12.71
2019-04-29T11:04:39.252Z,12.66
2019-04-29T11:05:44.683Z,12.66
2019-04-29T11:06:40.259Z,12.73
2019-04-29T11:07:39.220Z,12.63
2019-04-29T11:08:39.750Z,12.71
2019-04-29T11:09:39.195Z,12.73
2019-04-29T11:10:39.183Z,12.73
2019-04-29T11:11:39.214Z,12.71
2019-04-29T11:12:39.221Z,12.72
2019-04-29T11:13:46.207Z,12.77
2019-04-29T11:14:40.150Z,12.68
2019-04-29T11:15:39.139Z,12.71
2019-04-29T11:16:46.413Z,12.65
2019-04-29T11:17:44.621Z,12.65
2019-04-29T11:18:39.117Z,12.58
2019-04-29T11:19:40.051Z,12.58
2019-04-29T11:20:39.075Z,12.54
2019-04-29T11:21:39.115Z,12.76
2019-04-29T11:22:39.449Z,12.68
2019-04-29T11:23:39.045Z,12.71
2019-04-29T11:24:39.037Z,12.72
2019-04-29T11:25:40.580Z,12.66
2019-04-29T11:26:39.085Z,12.63
2019-04-29T11:27:39.035Z,12.73
2019-04-29T11:28:38.995Z,12.72
2019-04-29T11:29:38.983Z,12.80
2019-04-29T11:30:39.508Z,12.80
2019-04-29T11:31:38.967Z,12.83
2019-04-29T11:32:38.966Z,12.90
2019-04-29T11:33:39.977Z,12.96
2019-04-29T11:34:38.937Z,12.90
2019-04-29T11:35:38.912Z,12.98
2019-04-29T11:36:43.636Z,12.93
2019-04-29T11:37:39.902Z,12.96
2019-04-29T11:38:38.876Z,13.05
2019-04-29T11:39:38.868Z,13.05
2019-04-29T11:40:43.702Z,12.99
2019-04-29T11:41:39.867Z,13.09
2019-04-29T11:42:41.825Z,13.05
2019-04-29T11:43:38.830Z,13.08
2019-04-29T11:44:38.817Z,13.11
2019-04-29T11:45:40.378Z,13.19
2019-04-29T11:46:38.791Z,13.29
2019-04-29T11:47:38.795Z,13.32
2019-04-29T11:48:38.770Z,13.29
2019-04-29T11:49:38.774Z,13.45
2019-04-29T11:50:38.749Z,13.49
2019-04-29T11:51:55.709Z,13.43
2019-04-29T11:52:39.738Z,13.60
2019-04-29T11:53:38.714Z,13.67
2019-04-29T11:54:38.710Z,13.68
2019-04-29T11:55:38.712Z,13.79
2019-04-29T11:56:39.825Z,13.86
2019-04-29T11:57:40.939Z,13.96
2019-04-29T11:58:38.670Z,14.08
2019-04-29T11:59:38.654Z,14.18
2019-04-29T12:00:38.640Z,14.34
2019-04-29T12:01:42.681Z,14.37
2019-04-29T12:02:45.687Z,14.58
2019-04-29T12:03:39.612Z,14.63
2019-04-29T12:04:41.940Z,14.71
2019-04-29T12:05:40.143Z,14.89
2019-04-29T12:06:39.576Z,14.97
2019-04-29T12:07:38.594Z,15.10
2019-04-29T12:08:38.562Z,15.15
2019-04-29T12:09:38.550Z,15.22
2019-04-29T12:10:46.710Z,15.36
2019-04-29T12:11:39.516Z,15.41
2019-04-29T12:12:38.574Z,15.47
2019-04-29T12:13:38.509Z,15.52
2019-04-29T12:14:39.174Z,15.65
2019-04-29T12:15:38.479Z,15.80
2019-04-29T12:16:38.462Z,15.84
2019-04-29T12:17:38.480Z,15.93
2019-04-29T12:18:39.884Z,15.99
2019-04-29T12:19:38.499Z,15.91
2019-04-29T12:20:38.449Z,16.06
2019-04-29T12:21:38.406Z,16.02
2019-04-29T12:22:48.000Z,16.06
2019-04-29T12:23:39.396Z,16.14
2019-04-29T12:24:38.373Z,16.16
2019-04-29T12:25:38.408Z,16.28
2019-04-29T12:26:42.851Z,16.32
2019-04-29T12:27:39.403Z,16.37
2019-04-29T12:28:42.765Z,16.43
2019-04-29T12:29:39.320Z,16.37
2019-04-29T12:30:38.355Z,16.40
2019-04-29T12:31:38.319Z,16.57
2019-04-29T12:32:38.285Z,16.70
2019-04-29T12:33:38.351Z,16.72
2019-04-29T12:34:38.265Z,16.65
2019-04-29T12:35:51.035Z,16.70
2019-04-29T12:36:55.030Z,16.77
2019-04-29T12:37:39.246Z,16.84
2019-04-29T12:38:40.044Z,16.90
2019-04-29T12:39:43.409Z,16.99
2019-04-29T12:40:39.197Z,17.16
2019-04-29T12:41:48.511Z,17.09
2019-04-29T12:42:40.133Z,17.17
2019-04-29T12:43:38.179Z,17.24
2019-04-29T12:44:39.923Z,17.34
2019-04-29T12:45:39.145Z,17.31
2019-04-29T12:46:38.136Z,17.39
2019-04-29T12:47:38.134Z,17.32
2019-04-29T12:48:38.922Z,17.25
2019-04-29T12:49:38.106Z,17.16
2019-04-29T12:50:38.094Z,17.16
2019-04-29T12:51:38.089Z,17.25
2019-04-29T12:52:38.067Z,17.20
2019-04-29T12:53:38.074Z,17.16
2019-04-29T12:54:38.061Z,17.19
2019-04-29T12:55:44.926Z,17.25
2019-04-29T12:56:43.082Z,17.22